Time;durP1;ratioP1;P1;durP2;ratioP2;P2;SDS_P1;SDS_P2;PMS_P1;PMS_P2;Temp;Humidity;BMP_temperature;BMP_pressure;BME280_temperature;BME280_humidity;BME280_pressure;Samples;Min_cycle;Max_cycle;Signal;HPM_P1;HPM_P2
2023/05/10 00:06:35;;;;;;;4.65;3.10;;;17.70;96.70;;;;;;4931267;28;20059;-75
2023/05/10 00:09:04;;;;;;;4.45;3.10;;;17.70;96.70;;;;;;4952026;28;20075;-74
2023/05/10 00:11:33;;;;;;;4.57;2.85;;;17.70;96.70;;;;;;4960555;28;20054;-73
2023/05/10 00:14:02;;;;;;;3.40;2.75;;;17.70;96.70;;;;;;4963417;28;20498;-74
2023/05/10 00:16:32;;;;;;;3.72;2.92;;;17.60;96.70;;;;;;4961161;28;20045;-74
2023/05/10 00:19:02;;;;;;;3.50;3.20;;;17.50;96.70;;;;;;4964617;28;20060;-73
2023/05/10 00:21:33;;;;;;;4.28;3.40;;;17.40;96.70;;;;;;4963711;28;20138;-74
2023/05/10 00:24:02;;;;;;;3.47;3.05;;;17.40;96.70;;;;;;4951779;28;20075;-74
2023/05/10 00:26:31;;;;;;;4.32;2.70;;;17.40;96.70;;;;;;4960204;28;20042;-73
2023/05/10 00:29:01;;;;;;;4.20;3.05;;;17.40;96.70;;;;;;4963353;28;20374;-73
2023/05/10 00:31:31;;;;;;;4.32;3.70;;;17.40;96.70;;;;;;4960080;28;20043;-74
2023/05/10 00:34:00;;;;;;;4.47;3.42;;;17.40;96.70;;;;;;4964094;28;20382;-74
2023/05/10 00:36:29;;;;;;;5.80;3.35;;;17.50;96.70;;;;;;4962358;28;20043;-73
2023/05/10 00:38:58;;;;;;;4.35;3.28;;;17.50;96.70;;;;;;4963280;28;20575;-73
2023/05/10 00:41:27;;;;;;;4.65;2.70;;;17.40;96.70;;;;;;4962548;28;20051;-73
2023/05/10 00:43:56;;;;;;;4.32;3.20;;;17.40;96.70;;;;;;4956532;28;20047;-73
2023/05/10 00:46:25;;;;;;;4.00;3.08;;;17.40;96.70;;;;;;4963735;28;20054;-73
2023/05/10 00:48:56;;;;;;;4.80;3.30;;;17.50;96.70;;;;;;4961806;28;20046;-74
2023/05/10 00:51:25;;;;;;;3.58;3.25;;;17.50;96.70;;;;;;4962453;28;20073;-73
2023/05/10 00:53:55;;;;;;;4.20;3.58;;;17.50;96.70;;;;;;4960957;28;20090;-73
2023/05/10 00:56:25;;;;;;;3.20;2.90;;;17.50;96.70;;;;;;4958646;28;20065;-73
2023/05/10 00:58:54;;;;;;;3.70;2.85;;;17.50;96.70;;;;;;4956856;28;20094;-73
2023/05/10 01:01:23;;;;;;;4.70;3.53;;;17.50;96.70;;;;;;4963208;28;20050;-73
2023/05/10 01:03:52;;;;;;;3.85;3.10;;;17.50;96.70;;;;;;4962047;28;20050;-73
2023/05/10 01:06:25;;;;;;;5.28;3.67;;;17.60;96.70;;;;;;4959834;28;20065;-73
2023/05/10 01:21:48;;;;;;;4.03;3.25;;;18.30;96.70;;;;;;4948680;28;20054;-74
2023/05/10 01:24:57;;;;;;;4.50;3.10;;;18.30;96.70;;;;;;4959511;28;20051;-73
2023/05/10 01:27:43;;;;;;;3.72;2.95;;;18.50;96.70;;;;;;4959705;28;20046;-73
2023/05/10 01:30:49;;;;;;;5.13;2.97;;;18.60;96.70;;;;;;4965237;28;20165;-73
2023/05/10 01:33:26;;;;;;;3.97;3.20;;;18.70;96.70;;;;;;4934632;28;20078;-73
2023/05/10 01:36:03;;;;;;;3.80;3.13;;;18.80;96.70;;;;;;4964421;28;20045;-73
2023/05/10 01:38:34;;;;;;;;;;;19.00;96.70;;;;;;4965364;28;20043;-73
2023/05/10 01:41:12;;;;;;;3.08;2.70;;;19.10;96.70;;;;;;4980807;28;20411;-73
2023/05/10 01:43:48;;;;;;;5.30;3.20;;;19.10;96.70;;;;;;4963904;28;20051;-73
2023/05/10 01:46:22;;;;;;;3.92;2.70;;;19.10;96.70;;;;;;4955479;28;20070;-73
2023/05/10 01:48:55;;;;;;;6.78;3.13;;;19.10;96.70;;;;;;4981432;28;20065;-73
2023/05/10 01:51:25;;;;;;;4.15;2.60;;;19.10;96.70;;;;;;4958706;28;20051;-74
2023/05/10 01:53:58;;;;;;;2.72;2.40;;;19.10;96.70;;;;;;4966031;28;20043;-73
2023/05/10 01:56:30;;;;;;;2.97;2.60;;;19.10;96.70;;;;;;4956384;28;20051;-74
2023/05/10 01:59:04;;;;;;;2.53;2.33;;;19.10;96.70;;;;;;4965911;28;20477;-73
2023/05/10 02:01:33;;;;;;;2.83;2.42;;;19.00;96.70;;;;;;4963274;28;20054;-73
2023/05/10 02:04:04;;;;;;;3.35;2.40;;;19.00;96.70;;;;;;4958819;28;20047;-73
2023/05/10 02:06:34;;;;;;;2.53;1.98;;;19.10;96.70;;;;;;4964588;28;20055;-74
2023/05/10 02:09:03;;;;;;;2.75;2.13;;;19.10;96.70;;;;;;4954844;28;20078;-73
2023/05/10 02:11:32;;;;;;;3.33;2.30;;;19.00;96.70;;;;;;4964341;28;20118;-73
2023/05/10 02:14:01;;;;;;;2.35;1.55;;;19.00;96.70;;;;;;4965873;28;20038;-73
2023/05/10 02:16:30;;;;;;;2.50;1.77;;;19.10;96.70;;;;;;4965411;28;20129;-73
2023/05/10 02:19:03;;;;;;;2.17;1.90;;;19.10;96.70;;;;;;4965999;28;20393;-73
2023/05/10 02:21:35;;;;;;;3.03;2.17;;;19.20;96.70;;;;;;4964880;28;20138;-73
2023/05/10 02:24:04;;;;;;;2.83;2.03;;;19.10;96.70;;;;;;4965368;28;20054;-73
2023/05/10 03:01:07;;;;;;;2.80;1.27;;;19.00;96.70;;;;;;4959079;28;20041;-73
2023/05/10 03:03:37;;;;;;;2.70;1.58;;;18.90;96.70;;;;;;4963284;28;20126;-73
2023/05/10 03:06:06;;;;;;;2.58;1.50;;;18.90;96.70;;;;;;4964528;28;20989;-74
2023/05/10 03:08:34;;;;;;;1.80;1.38;;;18.80;96.70;;;;;;4962982;28;20054;-73
2023/05/10 03:11:26;;;;;;;2.00;1.70;;;18.70;96.70;;;;;;4961757;28;20178;-74
2023/05/10 03:14:13;;;;;;;2.33;1.63;;;18.70;96.70;;;;;;4954675;28;21677;-73
2023/05/10 03:16:46;;;;;;;2.17;1.70;;;18.80;96.70;;;;;;4963504;28;20050;-74
2023/05/10 03:19:26;;;;;;;2.05;1.52;;;18.90;96.70;;;;;;4962222;28;20066;-74
2023/05/10 03:21:59;;;;;;;2.33;1.63;;;18.90;96.70;;;;;;4945745;28;20062;-73
2023/05/10 03:24:36;;;;;;;3.08;1.88;;;19.00;96.70;;;;;;4952730;28;20138;-73
2023/05/10 04:11:41;;;;;;;2.35;2.15;;;18.60;96.70;;;;;;4929649;28;20066;-73
2023/05/10 04:14:10;;;;;;;1.98;1.88;;;18.60;96.70;;;;;;4908083;29;20056;-73
2023/05/10 04:16:39;;;;;;;2.90;2.38;;;18.60;96.70;;;;;;4925208;29;20056;-73
2023/05/10 04:19:09;;;;;;;2.75;2.00;;;18.60;96.70;;;;;;4939270;29;20047;-73
2023/05/10 04:21:37;;;;;;;3.05;2.63;;;18.50;96.70;;;;;;4940370;28;20055;-73
2023/05/10 04:24:07;;;;;;;2.33;2.03;;;18.50;96.70;;;;;;4939827;28;20119;-73
2023/05/10 04:26:36;;;;;;;2.42;1.98;;;18.50;96.70;;;;;;4939315;29;20513;-73
2023/05/10 04:29:08;;;;;;;3.00;2.20;;;18.50;96.70;;;;;;4924132;29;20050;-73
2023/05/10 04:31:37;;;;;;;2.75;2.10;;;18.60;96.70;;;;;;4925584;29;20077;-73
2023/05/10 04:34:05;;;;;;;2.50;2.10;;;18.60;96.70;;;;;;4939596;28;20051;-73
2023/05/10 04:36:35;;;;;;;2.72;2.10;;;18.60;96.70;;;;;;4925526;29;20036;-73
2023/05/10 04:39:04;;;;;;;1.73;1.55;;;18.50;96.70;;;;;;4922772;29;20040;-73
2023/05/10 04:41:32;;;;;;;2.63;1.80;;;18.40;96.70;;;;;;4923173;29;20614;-72
2023/05/10 04:44:00;;;;;;;2.17;1.88;;;18.50;96.70;;;;;;4920875;29;20055;-73
2023/05/10 04:54:49;;;;;;;1.75;1.33;;;18.40;96.70;;;;;;4920364;29;20054;-74
2023/05/10 04:57:16;;;;;;;2.25;1.40;;;18.30;96.70;;;;;;4943970;29;20048;-74
2023/05/10 04:59:44;;;;;;;1.30;1.20;;;18.30;96.70;;;;;;4927089;29;20048;-73
2023/05/10 05:02:14;;;;;;;1.90;1.50;;;18.30;96.70;;;;;;4927469;29;20510;-73
2023/05/10 05:04:42;;;;;;;1.75;1.20;;;18.30;96.70;;;;;;4929352;29;20040;-73
2023/05/10 05:07:10;;;;;;;2.10;1.30;;;18.20;96.70;;;;;;4928936;29;20040;-73
2023/05/10 05:09:38;;;;;;;1.98;1.77;;;18.10;96.70;;;;;;4942295;28;20648;-73
2023/05/10 05:12:08;;;;;;;1.60;1.17;;;18.00;96.70;;;;;;4932889;28;20062;-74
2023/05/10 05:14:36;;;;;;;1.30;0.82;;;18.20;96.70;;;;;;4967290;28;20058;-74
2023/05/10 05:17:04;;;;;;;2.00;1.17;;;18.30;96.70;;;;;;4965518;28;20043;-73
2023/05/10 05:19:38;;;;;;;2.55;1.30;;;18.30;96.70;;;;;;4967155;28;20049;-73
2023/05/10 05:22:07;;;;;;;2.83;1.13;;;18.40;96.70;;;;;;4965343;28;20042;-73
2023/05/10 05:24:39;;;;;;;1.17;0.98;;;18.50;96.70;;;;;;4963937;28;20065;-74
2023/05/10 05:27:08;;;;;;;2.25;1.17;;;18.50;96.70;;;;;;4959701;28;20145;-73
2023/05/10 05:29:36;;;;;;;1.40;1.20;;;18.40;96.70;;;;;;4966440;28;20119;-74
2023/05/10 05:32:05;;;;;;;2.10;0.90;;;18.50;96.70;;;;;;4964002;28;20051;-73
2023/05/10 05:34:33;;;;;;;2.25;0.82;;;18.50;96.70;;;;;;4945729;28;20366;-73
2023/05/10 05:37:01;;;;;;;2.65;0.82;;;18.50;96.70;;;;;;4961046;28;20065;-73
2023/05/10 05:39:29;;;;;;;2.15;0.95;;;18.30;96.70;;;;;;4965387;28;20507;-74
2023/05/10 05:41:58;;;;;;;1.35;1.00;;;18.40;96.70;;;;;;4965953;28;20051;-74
2023/05/10 05:44:28;;;;;;;1.27;0.85;;;18.40;96.70;;;;;;4964008;28;20058;-74
2023/05/10 05:46:56;;;;;;;1.95;1.30;;;18.30;96.70;;;;;;4965744;28;20057;-74
2023/05/10 05:49:24;;;;;;;3.20;1.75;;;18.40;96.70;;;;;;4966381;28;20051;-74
2023/05/10 05:51:52;;;;;;;1.85;1.17;;;18.30;96.70;;;;;;4966193;28;20046;-74
2023/05/10 05:54:21;;;;;;;3.42;1.88;;;18.40;96.70;;;;;;4962056;28;20046;-74
2023/05/10 05:56:49;;;;;;;3.25;1.88;;;18.40;96.70;;;;;;4965394;28;20492;-74
2023/05/10 05:59:17;;;;;;;2.53;1.67;;;18.50;96.70;;;;;;4965049;28;20047;-74
2023/05/10 06:01:46;;;;;;;2.05;1.70;;;18.50;96.70;;;;;;4964596;28;20416;-74
2023/05/10 06:04:15;;;;;;;3.05;1.50;;;18.50;96.70;;;;;;4964142;28;20102;-74
2023/05/10 06:06:43;;;;;;;2.47;1.77;;;18.50;96.70;;;;;;4964253;28;20041;-74
2023/05/10 06:09:12;;;;;;;2.53;1.30;;;18.60;96.70;;;;;;4964934;28;20145;-74
2023/05/10 06:11:40;;;;;;;1.60;1.40;;;18.50;96.70;;;;;;4963710;28;20058;-75
2023/05/10 06:14:09;;;;;;;1.75;1.48;;;18.50;96.70;;;;;;4951666;28;20597;-74
2023/05/10 06:16:37;;;;;;;2.92;1.40;;;18.50;96.70;;;;;;4962152;28;20054;-75
2023/05/10 06:19:06;;;;;;;1.15;1.02;;;18.50;96.70;;;;;;4963978;28;20074;-74
2023/05/10 06:21:35;;;;;;;1.50;1.25;;;18.60;96.70;;;;;;4964886;28;20057;-73
2023/05/10 06:24:03;;;;;;;1.88;1.15;;;18.70;96.70;;;;;;4963916;28;20050;-73
2023/05/10 06:26:31;;;;;;;2.63;1.20;;;18.70;96.70;;;;;;4963741;28;20051;-76
2023/05/10 06:28:59;;;;;;;2.92;1.40;;;18.70;96.70;;;;;;4965460;28;20470;-75
2023/05/10 06:31:27;;;;;;;1.23;0.90;;;18.70;96.70;;;;;;4962665;28;20551;-75
2023/05/10 06:33:56;;;;;;;2.53;1.52;;;18.80;96.70;;;;;;4965567;28;20043;-74
2023/05/10 06:36:26;;;;;;;2.33;1.10;;;18.90;96.70;;;;;;4963318;28;20167;-74
2023/05/10 06:38:54;;;;;;;2.38;1.10;;;18.90;96.70;;;;;;4963894;28;20082;-74
2023/05/10 06:41:23;;;;;;;2.15;1.00;;;18.90;96.70;;;;;;4964828;28;20141;-74
2023/05/10 06:43:51;;;;;;;2.28;1.10;;;19.00;96.70;;;;;;4948983;28;20058;-74
2023/05/10 06:46:19;;;;;;;1.17;0.90;;;19.00;96.70;;;;;;4962343;28;20043;-74
2023/05/10 06:48:48;;;;;;;1.27;1.17;;;19.00;96.70;;;;;;4965043;28;20043;-74
2023/05/10 06:51:17;;;;;;;2.50;1.20;;;18.90;96.70;;;;;;4957199;28;20075;-74
2023/05/10 06:53:47;;;;;;;2.85;1.23;;;19.00;96.70;;;;;;4947260;28;20089;-74
2023/05/10 06:56:16;;;;;;;1.45;1.35;;;19.00;96.70;;;;;;4963741;28;20055;-74
2023/05/10 06:58:44;;;;;;;1.95;1.20;;;19.00;96.70;;;;;;4964087;28;20050;-74
2023/05/10 07:01:12;;;;;;;1.45;1.35;;;19.00;96.70;;;;;;4964546;28;20412;-74
2023/05/10 07:03:40;;;;;;;2.35;1.20;;;19.10;96.70;;;;;;4964125;28;20047;-74
2023/05/10 07:06:08;;;;;;;2.20;1.42;;;19.20;96.70;;;;;;4962134;28;20047;-74
2023/05/10 07:08:58;;;;;;;2.15;1.20;;;19.30;96.70;;;;;;4964207;28;20059;-75
2023/05/10 07:11:26;;;;;;;1.70;1.38;;;19.40;96.70;;;;;;4964324;28;20046;-76
2023/05/10 07:13:54;;;;;;;2.47;1.30;;;19.30;96.70;;;;;;4964255;28;20047;-75
2023/05/10 07:16:24;;;;;;;1.38;1.10;;;19.20;96.70;;;;;;4964612;28;20042;-75
2023/05/10 07:18:53;;;;;;;2.20;1.55;;;19.20;96.70;;;;;;4948854;28;20054;-75
2023/05/10 07:21:23;;;;;;;1.48;1.38;;;19.30;96.70;;;;;;4960601;28;20038;-75
2023/05/10 07:23:52;;;;;;;2.15;1.15;;;19.30;96.70;;;;;;4962736;28;20077;-75
2023/05/10 07:26:21;;;;;;;1.35;1.25;;;19.40;96.70;;;;;;4964028;28;20053;-76
2023/05/10 07:28:50;;;;;;;2.22;1.50;;;19.30;96.70;;;;;;4962214;28;20074;-75
2023/05/10 07:31:18;;;;;;;1.33;1.10;;;19.40;96.70;;;;;;4964566;28;20093;-75
2023/05/10 07:33:46;;;;;;;1.60;1.10;;;19.50;96.70;;;;;;4964431;28;20094;-75
2023/05/10 07:36:14;;;;;;;1.67;1.20;;;19.60;96.70;;;;;;4961925;28;20455;-74
2023/05/10 07:38:42;;;;;;;2.10;1.20;;;19.70;96.70;;;;;;4962919;28;20043;-74
2023/05/10 07:41:12;;;;;;;1.75;0.85;;;19.70;96.70;;;;;;4964680;28;20050;-74
2023/05/10 07:43:41;;;;;;;1.83;1.10;;;19.70;96.70;;;;;;4964458;28;20046;-74
2023/05/10 07:46:10;;;;;;;1.80;1.15;;;19.60;96.70;;;;;;4962806;28;20069;-74
2023/05/10 07:48:39;;;;;;;2.47;1.40;;;19.70;96.70;;;;;;4964048;28;20049;-74
2023/05/10 07:51:09;;;;;;;2.75;1.10;;;19.80;96.70;;;;;;4961442;28;20537;-74
2023/05/10 07:53:38;;;;;;;0.98;0.90;;;19.80;96.70;;;;;;4956153;28;20043;-74
2023/05/10 07:56:21;;;;;;;1.60;1.00;;;19.80;96.70;;;;;;4964020;28;20051;-74
2023/05/10 07:58:51;;;;;;;1.13;0.88;;;19.70;96.70;;;;;;4962609;28;20050;-74
2023/05/10 08:01:20;;;;;;;1.27;1.00;;;19.70;96.70;;;;;;4963155;28;20051;-74
2023/05/10 08:03:48;;;;;;;1.92;0.93;;;19.70;96.70;;;;;;4961872;28;20047;-74
2023/05/10 08:06:17;;;;;;;1.15;0.90;;;19.70;96.70;;;;;;4964457;28;20058;-74
2023/05/10 08:08:49;;;;;;;2.53;1.05;;;19.70;96.70;;;;;;4963341;28;20070;-74
2023/05/10 08:11:17;;;;;;;1.10;1.00;;;19.80;96.70;;;;;;4963816;28;20569;-74
2023/05/10 08:13:46;;;;;;;1.30;0.80;;;19.80;96.70;;;;;;4963891;28;20066;-75
2023/05/10 08:16:15;;;;;;;3.28;1.10;;;19.80;96.70;;;;;;4963263;28;20053;-74
2023/05/10 08:18:44;;;;;;;3.13;1.15;;;19.90;96.70;;;;;;4963664;28;20042;-74
2023/05/10 08:21:13;;;;;;;2.80;1.20;;;19.80;96.70;;;;;;4964233;28;20039;-74
2023/05/10 08:23:43;;;;;;;1.60;1.05;;;19.80;96.70;;;;;;4962165;28;20401;-74
2023/05/10 08:26:12;;;;;;;2.35;1.20;;;19.90;96.70;;;;;;4963609;28;20047;-74
2023/05/10 08:28:40;;;;;;;2.88;1.15;;;19.80;96.70;;;;;;4961549;28;20046;-74
2023/05/10 08:31:08;;;;;;;1.25;1.00;;;19.80;96.70;;;;;;4958377;28;20600;-74
2023/05/10 08:33:37;;;;;;;2.60;1.20;;;19.80;96.70;;;;;;4967504;28;20424;-75
2023/05/10 08:36:07;;;;;;;2.80;0.90;;;19.70;96.70;;;;;;4967882;28;20050;-74
2023/05/10 08:38:35;;;;;;;1.20;0.77;;;19.60;96.70;;;;;;4954085;28;20134;-74
2023/05/10 08:41:05;;;;;;;1.50;0.95;;;19.60;96.70;;;;;;4966425;28;20054;-74
2023/05/10 08:43:35;;;;;;;1.80;1.10;;;19.60;96.70;;;;;;4967560;28;20047;-74
2023/05/10 08:46:07;;;;;;;2.63;1.10;;;19.60;96.70;;;;;;4967507;28;20043;-74
2023/05/10 08:48:37;;;;;;;1.92;1.27;;;19.60;96.70;;;;;;4967798;28;20043;-74
2023/05/10 08:51:08;;;;;;;1.30;1.20;;;19.60;96.70;;;;;;4965691;28;20537;-74
2023/05/10 08:53:39;;;;;;;1.45;0.90;;;19.60;96.70;;;;;;4965191;28;20043;-74
2023/05/10 08:56:07;;;;;;;1.23;0.98;;;19.50;96.70;;;;;;4959967;28;20153;-75
2023/05/10 08:58:36;;;;;;;2.00;1.10;;;19.50;96.70;;;;;;4949755;28;20050;-74
2023/05/10 09:01:05;;;;;;;1.90;1.08;;;19.50;96.70;;;;;;4967170;28;20043;-75
2023/05/10 09:03:34;;;;;;;1.33;1.10;;;19.50;96.70;;;;;;4966988;28;20050;-74
2023/05/10 09:06:04;;;;;;;2.05;1.10;;;19.50;96.70;;;;;;4966396;28;20035;-74
2023/05/10 09:08:33;;;;;;;1.55;1.10;;;19.40;96.70;;;;;;4956942;28;20564;-75
2023/05/10 09:11:02;;;;;;;2.10;1.40;;;19.40;96.70;;;;;;4962048;28;20043;-74
2023/05/10 09:13:31;;;;;;;3.20;1.38;;;19.50;96.70;;;;;;4964145;28;20059;-75
2023/05/10 09:16:00;;;;;;;1.85;1.00;;;19.40;96.70;;;;;;4964504;28;20615;-74
2023/05/10 09:18:47;;;;;;;1.20;1.10;;;19.40;96.70;;;;;;4957911;28;20047;-74
2023/05/10 09:21:16;;;;;;;2.55;1.17;;;19.30;96.70;;;;;;4965176;28;20168;-74
2023/05/10 09:23:45;;;;;;;1.63;1.33;;;19.40;96.70;;;;;;4966700;28;20082;-74
2023/05/10 09:26:15;;;;;;;2.13;1.38;;;19.40;96.70;;;;;;4966593;28;20069;-74
2023/05/10 09:28:54;;;;;;;2.08;1.58;;;19.40;96.70;;;;;;4960398;28;20402;-74
2023/05/10 09:31:23;;;;;;;2.55;1.35;;;19.50;96.70;;;;;;4948402;28;20073;-74
2023/05/10 09:33:52;;;;;;;3.72;1.80;;;19.40;96.70;;;;;;4966742;28;20046;-74
2023/05/10 09:36:21;;;;;;;2.58;1.63;;;19.30;96.70;;;;;;4963940;28;20491;-74
2023/05/10 09:38:51;;;;;;;2.65;1.55;;;19.30;96.70;;;;;;4966136;28;20069;-75
2023/05/10 09:41:20;;;;;;;2.85;1.73;;;19.30;96.70;;;;;;4965034;28;20038;-74
2023/05/10 09:43:49;;;;;;;3.28;1.58;;;19.30;96.70;;;;;;4961698;28;20058;-74
2023/05/10 09:46:17;;;;;;;2.88;1.48;;;19.30;96.70;;;;;;4966352;28;20057;-74
2023/05/10 09:48:47;;;;;;;2.83;1.90;;;19.30;96.70;;;;;;4958662;28;20573;-74
2023/05/10 09:51:24;;;;;;;1.90;1.35;;;19.40;96.70;;;;;;4962214;28;20145;-74
2023/05/10 09:54:10;;;;;;;3.45;1.88;;;19.40;96.70;;;;;;4956411;28;20161;-74
2023/05/10 09:56:40;;;;;;;2.72;1.90;;;19.40;96.70;;;;;;4966401;28;20073;-75
2023/05/10 09:59:12;;;;;;;2.40;1.95;;;19.40;96.70;;;;;;4967036;28;20050;-74
2023/05/10 10:01:41;;;;;;;2.75;2.05;;;19.40;96.70;;;;;;4965492;28;20046;-74
2023/05/10 10:04:10;;;;;;;1.88;1.58;;;19.40;96.70;;;;;;4966008;28;20058;-74
2023/05/10 10:06:40;;;;;;;3.55;1.70;;;19.40;96.70;;;;;;4964597;28;20051;-74
2023/05/10 10:09:09;;;;;;;2.60;1.50;;;19.30;96.70;;;;;;4962991;28;20130;-74
2023/05/10 10:11:38;;;;;;;3.38;1.80;;;19.30;96.70;;;;;;4966070;28;20043;-74
2023/05/10 10:14:06;;;;;;;2.15;1.90;;;19.30;96.70;;;;;;4962335;28;20134;-74
2023/05/10 10:16:34;;;;;;;1.70;1.60;;;19.40;96.70;;;;;;4940601;28;20051;-74
2023/05/10 10:19:03;;;;;;;2.33;1.55;;;19.50;96.70;;;;;;4963112;28;20448;-74
2023/05/10 10:21:31;;;;;;;3.35;1.85;;;19.50;96.70;;;;;;4966079;28;20035;-74
2023/05/10 10:24:01;;;;;;;2.75;1.73;;;19.50;96.70;;;;;;4963653;28;20058;-74
2023/05/10 10:26:30;;;;;;;2.63;1.63;;;19.40;96.70;;;;;;4965509;28;20047;-75
2023/05/10 10:29:10;;;;;;;1.75;1.58;;;19.40;96.70;;;;;;4964147;28;20043;-74
2023/05/10 10:31:45;;;;;;;4.80;1.48;;;19.40;96.70;;;;;;4960785;28;20054;-74
2023/05/10 10:34:26;;;;;;;2.33;1.10;;;19.40;96.70;;;;;;4963680;28;20539;-74
2023/05/10 10:36:56;;;;;;;2.05;1.25;;;19.40;96.70;;;;;;4947761;28;20118;-74
2023/05/10 10:39:26;;;;;;;0.98;0.88;;;19.40;96.70;;;;;;4963230;28;20122;-74
2023/05/10 10:41:56;;;;;;;1.83;0.95;;;19.50;96.70;;;;;;4965073;28;20045;-74
2023/05/10 10:44:26;;;;;;;0.80;0.80;;;19.50;96.70;;;;;;4955309;28;20051;-74
2023/05/10 10:47:11;;;;;;;1.33;0.75;;;19.60;96.70;;;;;;4965586;28;20054;-74
2023/05/10 10:49:44;;;;;;;2.50;1.00;;;19.40;96.70;;;;;;4957861;28;20082;-75
2023/05/10 10:52:22;;;;;;;1.20;0.63;;;19.50;96.70;;;;;;4964377;28;20574;-75
2023/05/10 10:54:57;;;;;;;2.15;0.93;;;19.50;96.70;;;;;;4960074;28;20077;-74
2023/05/10 10:57:26;;;;;;;1.35;0.88;;;19.50;96.70;;;;;;4959644;28;20053;-74
2023/05/10 11:00:21;;;;;;;1.33;1.00;;;19.60;96.70;;;;;;4962942;28;20215;-73
2023/05/10 11:02:51;;;;;;;2.22;0.80;;;19.60;96.70;;;;;;4945795;28;20552;-74
2023/05/10 11:05:44;;;;;;;1.17;0.77;;;19.70;96.70;;;;;;4959250;28;20046;-73
2023/05/10 11:08:25;;;;;;;1.42;0.80;;;19.70;96.70;;;;;;4961136;28;20081;-74
2023/05/10 11:11:09;;;;;;;2.35;0.80;;;19.60;96.70;;;;;;4963902;28;20106;-74
2023/05/10 11:13:42;;;;;;;1.48;0.80;;;19.70;96.70;;;;;;4952768;28;20054;-74
2023/05/10 11:16:13;;;;;;;1.38;0.70;;;19.70;96.70;;;;;;4964419;28;20097;-74
2023/05/10 11:18:53;;;;;;;2.42;0.70;;;19.70;96.70;;;;;;4960062;28;20046;-74
2023/05/10 11:21:22;;;;;;;1.60;0.88;;;19.70;96.70;;;;;;4952688;28;20583;-75
2023/05/10 11:23:55;;;;;;;1.77;0.88;;;19.60;96.70;;;;;;4963755;28;20046;-74
2023/05/10 11:26:30;;;;;;;1.20;0.90;;;19.40;96.70;;;;;;4963426;28;20050;-74
2023/05/10 11:29:00;;;;;;;2.90;1.30;;;19.50;96.70;;;;;;4962580;28;20049;-74
2023/05/10 11:31:29;;;;;;;2.50;1.27;;;19.40;96.70;;;;;;4962413;28;20058;-72
2023/05/10 11:34:01;;;;;;;2.53;1.00;;;19.50;96.70;;;;;;4960907;28;20043;-71
2023/05/10 11:36:33;;;;;;;2.42;0.93;;;19.50;96.70;;;;;;4963439;28;20042;-72
2023/05/10 11:39:03;;;;;;;1.77;0.82;;;19.50;96.70;;;;;;4962160;28;20043;-72
2023/05/10 11:41:33;;;;;;;1.10;0.52;;;19.50;96.70;;;;;;4963013;28;20547;-71
2023/05/10 11:44:02;;;;;;;2.03;0.73;;;19.40;96.70;;;;;;4963248;28;20133;-72
2023/05/10 11:46:30;;;;;;;1.17;0.70;;;19.30;96.70;;;;;;4963904;28;20526;-73
2023/05/10 11:49:01;;;;;;;1.23;0.50;;;19.30;96.70;;;;;;4963614;28;20050;-73
2023/05/10 11:51:32;;;;;;;1.15;0.60;;;19.20;96.70;;;;;;4962673;28;20051;-72
2023/05/10 11:54:00;;;;;;;1.67;0.77;;;19.20;96.70;;;;;;4963501;28;20054;-73
2023/05/10 11:56:29;;;;;;;2.15;0.80;;;19.30;96.70;;;;;;4963833;28;20043;-73
2023/05/10 11:59:00;;;;;;;1.67;0.65;;;19.30;96.70;;;;;;4960048;28;20515;-72
2023/05/10 12:01:28;;;;;;;0.70;0.50;;;19.20;96.70;;;;;;4963340;28;20105;-72
2023/05/10 12:03:59;;;;;;;1.60;0.60;;;19.20;96.70;;;;;;4961722;28;20069;-72
2023/05/10 12:06:30;;;;;;;2.28;0.70;;;19.20;96.70;;;;;;4962372;28;20559;-73
2023/05/10 12:08:59;;;;;;;1.42;0.77;;;19.40;96.70;;;;;;4954571;28;20049;-73
2023/05/10 12:11:28;;;;;;;0.88;0.60;;;19.40;96.70;;;;;;4963572;28;20047;-73
2023/05/10 12:13:58;;;;;;;0.82;0.45;;;19.50;96.70;;;;;;4962418;28;20051;-73
2023/05/10 12:16:29;;;;;;;0.77;0.52;;;19.50;96.70;;;;;;4963687;28;20066;-73
2023/05/10 12:18:58;;;;;;;0.70;0.50;;;19.60;96.70;;;;;;4962847;28;20054;-73
2023/05/10 12:21:30;;;;;;;1.63;0.75;;;19.60;96.70;;;;;;4962560;28;20046;-72
2023/05/10 12:24:02;;;;;;;0.88;0.60;;;19.60;96.70;;;;;;4962119;28;20055;-72
2023/05/10 12:26:30;;;;;;;1.15;0.57;;;19.60;96.70;;;;;;4963223;28;20047;-72
2023/05/10 12:29:15;;;;;;;0.93;0.63;;;19.50;96.70;;;;;;4958305;28;20055;-73
2023/05/10 12:31:51;;;;;;;1.38;0.60;;;19.50;96.70;;;;;;4943517;28;20074;-73
2023/05/10 12:34:26;;;;;;;1.35;0.65;;;19.50;96.70;;;;;;4957612;28;20523;-73
2023/05/10 12:36:55;;;;;;;1.23;0.60;;;19.50;96.70;;;;;;4961688;28;20046;-73
2023/05/10 12:39:23;;;;;;;1.70;0.80;;;19.50;96.70;;;;;;4960221;28;20120;-73
2023/05/10 12:41:52;;;;;;;1.58;0.60;;;19.40;96.70;;;;;;4963101;28;20161;-73
2023/05/10 12:44:22;;;;;;;1.95;0.73;;;19.30;96.70;;;;;;4963166;28;20071;-73
2023/05/10 12:46:50;;;;;;;1.42;0.70;;;19.20;96.70;;;;;;4958930;28;20500;-72
2023/05/10 12:49:19;;;;;;;1.52;0.52;;;19.10;96.70;;;;;;4963381;28;20059;-73
2023/05/10 12:51:47;;;;;;;2.53;0.60;;;19.10;96.70;;;;;;4963344;28;20043;-73
2023/05/10 12:54:15;;;;;;;1.85;0.30;;;18.90;96.70;;;;;;4962858;28;20047;-74
2023/05/10 12:56:44;;;;;;;1.23;0.38;;;18.90;96.70;;;;;;4961697;28;20079;-76
2023/05/10 12:59:12;;;;;;;0.68;0.20;;;18.80;96.70;;;;;;4963153;28;20054;-74
2023/05/10 13:01:42;;;;;;;0.60;0.20;;;18.70;96.70;;;;;;4960160;28;20141;-74
2023/05/10 13:04:10;;;;;;;1.65;0.32;;;18.60;96.70;;;;;;4962302;28;20051;-74
2023/05/10 13:06:38;;;;;;;2.63;0.50;;;18.60;96.70;;;;;;4961069;28;20066;-74
2023/05/10 13:09:06;;;;;;;0.52;0.35;;;18.60;96.70;;;;;;4961351;28;20074;-73
2023/05/10 13:11:35;;;;;;;0.50;0.30;;;18.50;96.70;;;;;;4962126;28;20043;-73
2023/05/10 13:14:03;;;;;;;2.97;0.75;;;18.30;96.70;;;;;;4956194;28;20063;-74
2023/05/10 13:16:31;;;;;;;1.30;0.40;;;18.30;96.70;;;;;;4953016;28;20039;-73
2023/05/10 13:19:01;;;;;;;1.67;0.30;;;18.30;96.70;;;;;;4956629;28;20047;-73
2023/05/10 13:21:30;;;;;;;1.65;0.35;;;18.30;96.70;;;;;;4966916;28;20519;-73
2023/05/10 13:24:00;;;;;;;1.10;0.10;;;18.20;96.70;;;;;;4966643;28;20086;-74
2023/05/10 13:26:28;;;;;;;0.68;0.30;;;18.10;96.70;;;;;;4967013;28;20043;-74
2023/05/10 13:28:56;;;;;;;0.65;0.20;;;18.10;96.70;;;;;;4961966;28;20417;-74
2023/05/10 13:31:25;;;;;;;2.50;0.30;;;18.00;96.70;;;;;;4965366;28;20059;-74
2023/05/10 13:33:53;;;;;;;0.60;0.20;;;17.90;96.70;;;;;;4964907;28;20050;-73
2023/05/10 13:36:23;;;;;;;1.65;0.40;;;17.90;96.70;;;;;;4966265;28;20125;-73
2023/05/10 13:38:52;;;;;;;0.47;0.28;;;17.80;96.70;;;;;;4963967;28;20089;-73
2023/05/10 13:41:20;;;;;;;1.17;0.20;;;17.60;96.70;;;;;;4966116;28;20039;-73
2023/05/10 13:43:49;;;;;;;1.60;0.20;;;17.60;96.70;;;;;;4965187;28;20058;-73
2023/05/10 13:46:17;;;;;;;0.95;0.20;;;17.70;96.70;;;;;;4958161;28;20126;-73
2023/05/10 13:48:45;;;;;;;0.63;0.13;;;17.70;96.70;;;;;;4964501;28;20404;-73
2023/05/10 13:51:13;;;;;;;0.40;0.10;;;17.70;96.70;;;;;;4966284;28;20074;-73
2023/05/10 13:53:43;;;;;;;1.20;0.10;;;17.70;96.70;;;;;;4966182;28;20059;-74
2023/05/10 13:56:11;;;;;;;0.17;0.10;;;17.70;96.70;;;;;;4973347;28;20505;-74
2023/05/10 13:58:40;;;;;;;1.02;0.30;;;17.60;96.70;;;;;;4964941;28;20038;-74
2023/05/10 14:01:08;;;;;;;1.50;0.25;;;17.80;96.70;;;;;;4964084;28;20070;-74
2023/05/10 14:03:36;;;;;;;0.77;0.25;;;17.70;96.70;;;;;;4965908;28;20097;-74
2023/05/10 14:06:07;;;;;;;0.90;0.17;;;17.70;96.70;;;;;;4965852;28;20043;-74
2023/05/10 14:08:36;;;;;;;1.73;0.30;;;17.80;96.70;;;;;;4955386;28;20416;-73
2023/05/10 14:11:06;;;;;;;0.70;0.20;;;17.70;96.70;;;;;;4965174;28;20049;-74
2023/05/10 14:13:34;;;;;;;3.30;0.40;;;17.80;96.70;;;;;;4957199;28;20089;-73
2023/05/10 14:16:02;;;;;;;0.82;0.17;;;17.70;96.70;;;;;;4965910;28;20456;-74
2023/05/10 14:18:31;;;;;;;0.50;0.20;;;17.60;96.70;;;;;;4965518;28;20047;-73
2023/05/10 14:20:59;;;;;;;1.58;0.30;;;17.70;96.70;;;;;;4963801;28;20101;-73
2023/05/10 14:23:28;;;;;;;2.42;0.30;;;17.80;96.70;;;;;;4964033;28;20055;-74
2023/05/10 14:25:56;;;;;;;1.58;0.40;;;17.90;96.70;;;;;;4954973;28;20129;-74
2023/05/10 14:28:26;;;;;;;0.82;0.50;;;17.80;96.70;;;;;;4939325;28;20070;-73
2023/05/10 14:30:54;;;;;;;1.75;0.45;;;18.00;96.70;;;;;;4964022;28;20078;-74
2023/05/10 14:33:23;;;;;;;0.88;0.30;;;18.10;96.70;;;;;;4965436;28;20477;-73
2023/05/10 14:35:51;;;;;;;0.40;0.30;;;18.00;96.70;;;;;;4963406;28;20094;-74
2023/05/10 14:38:19;;;;;;;1.75;0.52;;;18.20;96.70;;;;;;4959943;28;20114;-74
2023/05/10 14:40:47;;;;;;;0.70;0.30;;;18.30;96.70;;;;;;4955135;28;20050;-73
2023/05/10 14:43:15;;;;;;;1.35;0.30;;;18.50;96.70;;;;;;4965134;28;20050;-74
2023/05/10 14:45:45;;;;;;;0.38;0.22;;;18.50;96.70;;;;;;4965312;28;20133;-74
2023/05/10 14:48:16;;;;;;;0.22;0.10;;;18.50;96.70;;;;;;4963848;28;20579;-74
2023/05/10 14:50:45;;;;;;;0.08;0.08;;;18.50;96.70;;;;;;4965387;28;20130;-74